Time;durP1;ratioP1;P1;durP2;ratioP2;P2;SDS_P1;SDS_P2;PMS_P1;PMS_P2;Temp;Humidity;BMP_temperature;BMP_pressure;BME280_temperature;BME280_humidity;BME280_pressure;Samples;Min_cycle;Max_cycle;Signal;HPM_P1;HPM_P2
2023/02/25 00:02:13;;;;;;;;;;;;;;;22.72;28.83;95998.97;5045408;28;19928;-88
2023/02/25 00:04:40;;;;;;;;;;;;;;;23.20;28.33;95994.91;5049387;28;20390;-88
2023/02/25 00:07:07;;;;;;;;;;;;;;;23.92;27.14;95987.91;5051490;28;19921;-90
2023/02/25 00:09:33;;;;;;;;;;;;;;;24.17;26.90;95971.78;5049478;28;19920;-90
2023/02/25 00:11:59;;;;;;;;;;;;;;;25.58;25.02;95966.38;5038789;28;19971;-91
2023/02/25 00:14:26;;;;;;;;;;;;;;;26.53;23.95;95966.72;5039758;28;19924;-91
2023/02/25 00:16:54;;;;;;;;;;;;;;;27.03;23.15;95952.94;5034721;28;19917;-91
2023/02/25 00:19:21;;;;;;;;;;;;;;;26.68;23.57;95946.84;5050382;28;19925;-92
2023/02/25 00:21:47;;;;;;;;;;;;;;;27.00;23.06;95942.69;5038336;28;19975;-92
2023/02/25 00:24:13;;;;;;;;;;;;;;;27.28;23.00;95928.72;5041600;28;19917;-91
2023/02/25 00:26:39;;;;;;;;;;;;;;;27.14;22.90;95932.53;5047658;28;19991;-92
2023/02/25 00:29:06;;;;;;;;;;;;;;;26.87;23.16;95933.91;5036102;28;19964;-91
2023/02/25 00:31:32;;;;;;;;;;;;;;;27.22;23.00;95942.78;5040418;28;19961;-91
2023/02/25 00:33:58;;;;;;;;;;;;;;;27.53;22.75;95933.44;5046772;28;19924;-91
2023/02/25 00:36:25;;;;;;;;;;;;;;;27.80;22.75;95937.56;5044432;28;19924;-91
2023/02/25 00:38:53;;;;;;;;;;;;;;;27.24;22.74;95937.41;5049051;28;20282;-92
2023/02/25 00:41:24;;;;;;;;;;;;;;;26.67;23.76;95948.13;5053212;28;19921;-91
2023/02/25 00:43:52;;;;;;;;;;;;;;;23.95;27.21;95958.91;5052501;28;20378;-91
2023/02/25 00:46:19;;;;;;;;;;;;;;;22.43;29.52;95959.63;5044315;28;19929;-91
2023/02/25 00:48:45;;;;;;;;;;;;;;;20.24;33.79;95983.28;5039532;28;19969;-90
2023/02/25 00:51:13;;;;;;;;;;;;;;;19.56;35.77;95970.38;5047194;28;20398;-91
2023/02/25 00:53:39;;;;;;;;;;;;;;;19.04;35.70;95973.09;5048765;28;20020;-91
2023/02/25 00:56:05;;;;;;;;;;;;;;;20.37;33.56;95963.69;5049768;28;19928;-91
2023/02/25 00:58:35;;;;;;;;;;;;;;;21.20;31.87;95944.59;5050261;28;19921;-91
2023/02/25 01:01:01;;;;;;;;;;;;;;;20.42;33.31;95932.44;5046776;28;20007;-91
2023/02/25 01:03:27;;;;;;;;;;;;;;;21.10;31.56;95926.31;5042777;28;20400;-91
2023/02/25 01:05:53;;;;;;;;;;;;;;;21.86;30.46;95916.88;5047302;28;19920;-91
2023/02/25 01:08:20;;;;;;;;;;;;;;;22.12;29.87;95917.25;5051888;28;19964;-92
2023/02/25 01:10:46;;;;;;;;;;;;;;;21.74;30.59;95915.03;5054659;28;19921;-91
2023/02/25 01:13:13;;;;;;;;;;;;;;;22.84;28.76;95913.25;5044597;28;20004;-92
2023/02/25 01:15:39;;;;;;;;;;;;;;;22.50;29.45;95897.75;5053788;28;20338;-91
2023/02/25 01:18:05;;;;;;;;;;;;;;;22.13;29.58;95899.22;5047967;28;19929;-91
2023/02/25 01:20:35;;;;;;;;;;;;;;;22.36;29.39;95896.44;5051629;28;19931;-91
2023/02/25 01:23:01;;;;;;;;;;;;;;;22.81;29.14;95897.41;5048929;28;19967;-91
2023/02/25 01:25:28;;;;;;;;;;;;;;;22.75;29.31;95902.13;5046135;28;19921;-92
2023/02/25 01:27:54;;;;;;;;;;;;;;;22.97;28.65;95902.56;5043188;28;19921;-91
2023/02/25 01:30:20;;;;;;;;;;;;;;;23.19;28.11;95900.22;5050260;28;19921;-92
2023/02/25 01:32:46;;;;;;;;;;;;;;;23.40;27.86;95892.75;5046796;28;19920;-92
2023/02/25 01:35:12;;;;;;;;;;;;;;;22.31;29.87;95902.69;5054237;28;20405;-92
2023/02/25 01:37:38;;;;;;;;;;;;;;;23.51;27.60;95902.09;5042530;28;20301;-91
2023/02/25 01:40:05;;;;;;;;;;;;;;;21.58;30.97;95913.38;5045153;28;19987;-92
2023/02/25 01:42:31;;;;;;;;;;;;;;;21.31;31.50;95919.78;5039391;28;20004;-90
2023/02/25 01:45:16;;;;;;;;;;;;;;;22.05;30.24;95909.97;5042211;28;19948;-91
2023/02/25 01:47:43;;;;;;;;;;;;;;;22.20;30.38;95910.81;5047405;28;20445;-92
2023/02/25 01:50:09;;;;;;;;;;;;;;;22.14;30.71;95915.53;5052206;28;19925;-92
2023/02/25 01:52:36;;;;;;;;;;;;;;;21.94;30.73;95915.28;5045682;28;19932;-91
2023/02/25 01:55:02;;;;;;;;;;;;;;;19.99;33.74;95920.19;5053215;28;19936;-90
2023/02/25 01:57:28;;;;;;;;;;;;;;;20.27;32.93;95923.09;5050626;28;20074;-90
2023/02/25 01:59:54;;;;;;;;;;;;;;;19.90;32.48;95909.03;5047863;28;19928;-91
2023/02/25 02:02:23;;;;;;;;;;;;;;;20.32;32.33;95911.34;5048111;28;20011;-90
2023/02/25 02:04:51;;;;;;;;;;;;;;;19.14;34.25;95907.94;5050324;28;19939;-89
2023/02/25 02:07:18;;;;;;;;;;;;;;;19.83;33.13;95914.88;5050541;28;19928;-88
2023/02/25 02:09:54;;;;;;;;;;;;;;;19.87;33.24;95901.56;5053503;28;20001;-88
2023/02/25 02:12:25;;;;;;;;;;;;;;;18.71;35.31;95919.81;5041937;28;19921;-88
2023/02/25 02:14:52;;;;;;;;;;;;;;;18.16;36.21;95921.25;5049420;28;19920;-89
2023/02/25 02:17:18;;;;;;;;;;;;;;;19.74;33.78;95916.84;5049570;28;19956;-89
2023/02/25 02:19:47;;;;;;;;;;;;;;;18.83;35.23;95907.09;5054310;28;19928;-89
2023/02/25 02:22:21;;;;;;;;;;;;;;;19.19;33.95;95907.34;5045968;28;19924;-89
2023/02/25 02:24:47;;;;;;;;;;;;;;;20.08;32.40;95910.28;5052277;28;20370;-89
2023/02/25 02:27:19;;;;;;;;;;;;;;;19.59;32.97;95922.16;5049757;28;20408;-89
2023/02/25 02:29:45;;;;;;;;;;;;;;;21.48;30.33;95902.69;5051499;28;19962;-89
2023/02/25 02:32:11;;;;;;;;;;;;;;;22.18;29.32;95896.56;5036495;28;19921;-89
2023/02/25 02:34:37;;;;;;;;;;;;;;;22.86;27.94;95903.13;5035686;28;20409;-90
2023/02/25 02:37:03;;;;;;;;;;;;;;;22.82;27.63;95890.59;5053285;28;19982;-90
2023/02/25 02:39:48;;;;;;;;;;;;;;;22.83;27.72;95892.13;5053898;28;20390;-90
2023/02/25 02:42:32;;;;;;;;;;;;;;;23.10;27.44;95881.50;5052926;28;19947;-90
2023/02/25 02:45:07;;;;;;;;;;;;;;;24.14;26.26;95869.00;5050230;28;20512;-90
2023/02/25 02:47:38;;;;;;;;;;;;;;;25.04;25.10;95864.84;5046538;28;19921;-91
2023/02/25 02:50:06;;;;;;;;;;;;;;;25.28;25.07;95867.41;5046880;28;19921;-91
2023/02/25 02:52:36;;;;;;;;;;;;;;;25.82;24.78;95863.59;5049873;28;20031;-91
2023/02/25 02:55:08;;;;;;;;;;;;;;;25.92;24.14;95847.31;5049353;28;20011;-91
2023/02/25 02:57:37;;;;;;;;;;;;;;;25.66;24.68;95855.81;5042577;28;19925;-91
2023/02/25 03:00:16;;;;;;;;;;;;;;;25.71;24.54;95838.22;5044271;28;19924;-91
2023/02/25 03:02:45;;;;;;;;;;;;;;;25.05;25.00;95851.59;5051258;28;20393;-91
2023/02/25 03:05:15;;;;;;;;;;;;;;;24.60;25.84;95855.88;5041746;28;19952;-92
2023/02/25 03:08:00;;;;;;;;;;;;;;;24.91;25.60;95860.88;5038241;28;19967;-92
2023/02/25 03:10:26;;;;;;;;;;;;;;;25.37;25.01;95856.78;5047424;28;19974;-92
2023/02/25 03:12:53;;;;;;;;;;;;;;;25.50;25.09;95853.63;5039833;28;19936;-91
2023/02/25 03:15:19;;;;;;;;;;;;;;;25.72;24.57;95855.88;5040487;28;20082;-91
2023/02/25 03:17:53;;;;;;;;;;;;;;;25.59;24.72;95864.69;5036971;28;19925;-91
2023/02/25 03:20:25;;;;;;;;;;;;;;;26.05;24.46;95859.69;5038757;28;19928;-91
2023/02/25 03:22:53;;;;;;;;;;;;;;;25.91;24.35;95860.59;5040317;28;19928;-92
2023/02/25 03:25:19;;;;;;;;;;;;;;;26.20;23.98;95861.59;5042778;28;20293;-92
2023/02/25 03:27:47;;;;;;;;;;;;;;;26.31;23.88;95864.47;5042343;28;19931;-92
2023/02/25 03:30:16;;;;;;;;;;;;;;;26.11;24.15;95854.16;5052520;28;20381;-92
2023/02/25 03:32:46;;;;;;;;;;;;;;;26.12;24.10;95861.28;5050647;28;19970;-92
2023/02/25 03:35:13;;;;;;;;;;;;;;;26.05;24.39;95854.06;5040816;28;19917;-92
2023/02/25 03:37:40;;;;;;;;;;;;;;;26.09;24.30;95859.47;5037744;28;19975;-91
2023/02/25 03:40:10;;;;;;;;;;;;;;;26.48;24.38;95845.66;5043896;28;19921;-91
2023/02/25 03:42:37;;;;;;;;;;;;;;;26.67;23.54;95846.78;5046844;28;19925;-91
2023/02/25 03:45:06;;;;;;;;;;;;;;;26.87;23.94;95848.66;5036923;28;20003;-92
2023/02/25 03:47:34;;;;;;;;;;;;;;;26.84;23.54;95844.81;5042121;28;21510;-92
2023/02/25 03:50:07;;;;;;;;;;;;;;;26.71;23.81;95842.44;5043074;28;19924;-92
2023/02/25 03:52:34;;;;;;;;;;;;;;;26.78;23.61;95851.72;5050225;28;19925;-92
2023/02/25 03:55:01;;;;;;;;;;;;;;;26.35;23.50;95859.41;5049122;28;19928;-92
2023/02/25 03:57:34;;;;;;;;;;;;;;;25.90;24.08;95869.56;5047518;28;19924;-92
2023/02/25 04:00:00;;;;;;;;;;;;;;;23.95;26.42;95866.41;5046714;28;19990;-93
2023/02/25 04:02:28;;;;;;;;;;;;;;;23.16;27.36;95864.78;5044885;28;19921;-94
2023/02/25 04:04:54;;;;;;;;;;;;;;;22.81;28.04;95875.03;5046418;28;20015;-93
2023/02/25 04:07:20;;;;;;;;;;;;;;;22.96;27.52;95873.06;5046388;28;20267;-93
2023/02/25 04:09:46;;;;;;;;;;;;;;;23.65;27.22;95864.91;5053542;28;19921;-94
2023/02/25 04:12:12;;;;;;;;;;;;;;;22.73;28.33;95871.06;5046098;28;19935;-92
2023/02/25 04:14:38;;;;;;;;;;;;;;;21.33;30.19;95900.53;5047802;28;19921;-94
2023/02/25 04:17:05;;;;;;;;;;;;;;;18.35;34.45;95936.88;5052017;28;20389;-94
2023/02/25 04:19:31;;;;;;;;;;;;;;;16.30;37.90;95958.66;5050228;28;19925;-94
2023/02/25 04:21:59;;;;;;;;;;;;;;;15.29;39.54;95962.50;5045082;28;19948;-95
2023/02/25 04:24:25;;;;;;;;;;;;;;;15.66;38.29;95977.97;5050554;28;19927;-93
2023/02/25 04:26:57;;;;;;;;;;;;;;;14.77;39.21;95978.91;5051025;28;19964;-92
2023/02/25 04:29:24;;;;;;;;;;;;;;;14.61;39.64;95972.53;5041862;28;20011;-91
2023/02/25 04:31:50;;;;;;;;;;;;;;;15.10;38.44;95974.34;5048782;28;19921;-90
2023/02/25 04:34:16;;;;;;;;;;;;;;;15.33;38.29;95977.06;5047938;28;19920;-91
2023/02/25 04:36:45;;;;;;;;;;;;;;;15.37;37.30;95986.03;5039310;28;19928;-90
2023/02/25 04:39:12;;;;;;;;;;;;;;;16.62;34.99;95985.56;5047546;28;20030;-89
2023/02/25 04:41:38;;;;;;;;;;;;;;;17.29;33.72;95972.66;5046862;28;20301;-89
2023/02/25 04:44:05;;;;;;;;;;;;;;;16.32;35.60;95969.28;5042967;28;19921;-89
2023/02/25 04:46:32;;;;;;;;;;;;;;;16.25;35.33;95973.00;5053119;28;20437;-89
2023/02/25 04:48:58;;;;;;;;;;;;;;;17.61;33.00;95966.22;5038837;28;19928;-91
2023/02/25 04:51:24;;;;;;;;;;;;;;;17.49;32.78;95967.72;5049879;28;19967;-92
2023/02/25 04:53:50;;;;;;;;;;;;;;;18.55;31.26;95970.75;5047561;28;19921;-91
2023/02/25 04:56:16;;;;;;;;;;;;;;;18.83;31.06;95971.03;5053976;28;19994;-91
2023/02/25 04:58:43;;;;;;;;;;;;;;;19.76;29.52;95976.41;5047432;28;19967;-91
2023/02/25 05:01:09;;;;;;;;;;;;;;;20.30;28.88;95983.47;5053018;28;19918;-91
2023/02/25 05:03:36;;;;;;;;;;;;;;;21.27;26.86;95988.16;5046005;28;19924;-92
2023/02/25 05:06:02;;;;;;;;;;;;;;;21.56;26.92;95985.69;5042648;28;19924;-91
2023/02/25 05:08:28;;;;;;;;;;;;;;;22.28;25.79;95981.94;5038282;28;19999;-91
2023/02/25 05:10:55;;;;;;;;;;;;;;;22.94;25.51;95984.72;5045958;28;19921;-90
2023/02/25 05:13:21;;;;;;;;;;;;;;;23.24;24.64;95989.16;5049769;28;19982;-92
2023/02/25 05:15:48;;;;;;;;;;;;;;;23.46;24.32;95986.03;5047138;28;19921;-91
2023/02/25 05:18:14;;;;;;;;;;;;;;;22.23;25.70;95995.75;5052391;28;20332;-91
2023/02/25 05:20:41;;;;;;;;;;;;;;;22.28;26.00;95993.13;5049254;28;19924;-92
2023/02/25 05:23:08;;;;;;;;;;;;;;;21.85;26.24;95999.13;5047227;28;19975;-91
2023/02/25 05:25:34;;;;;;;;;;;;;;;21.67;26.51;96019.47;5052705;28;19920;-91
2023/02/25 05:28:00;;;;;;;;;;;;;;;21.19;27.38;96023.22;5048416;28;19928;-91
2023/02/25 05:30:26;;;;;;;;;;;;;;;20.06;28.52;96013.06;5045738;28;19964;-91
2023/02/25 05:32:52;;;;;;;;;;;;;;;19.48;29.50;96029.56;5050110;28;19921;-91
2023/02/25 05:35:18;;;;;;;;;;;;;;;18.57;30.95;96035.03;5052127;28;19928;-91
2023/02/25 05:37:44;;;;;;;;;;;;;;;19.81;28.80;96025.91;5047025;28;19920;-91
2023/02/25 05:40:12;;;;;;;;;;;;;;;19.98;28.80;96034.81;5047940;28;19928;-91
2023/02/25 05:42:38;;;;;;;;;;;;;;;20.93;27.59;96028.28;5046797;28;20286;-91
2023/02/25 05:45:06;;;;;;;;;;;;;;;21.58;26.40;96035.47;5045151;28;19928;-91
2023/02/25 05:47:32;;;;;;;;;;;;;;;21.82;25.91;96034.34;5046122;28;19982;-91
2023/02/25 05:49:58;;;;;;;;;;;;;;;22.98;24.67;96028.06;5048453;28;20023;-91
2023/02/25 05:52:24;;;;;;;;;;;;;;;22.85;24.65;96012.75;5051151;28;20015;-91
2023/02/25 05:54:50;;;;;;;;;;;;;;;23.27;24.03;96022.56;5045546;28;19923;-91
2023/02/25 05:57:16;;;;;;;;;;;;;;;22.27;24.85;96019.50;5045943;28;19925;-91
2023/02/25 05:59:42;;;;;;;;;;;;;;;23.49;23.94;96016.66;5048408;28;20068;-92
2023/02/25 06:02:08;;;;;;;;;;;;;;;22.85;24.05;96007.16;5049742;28;19921;-91
2023/02/25 06:04:34;;;;;;;;;;;;;;;21.64;25.66;96025.97;5048737;28;19940;-91
2023/02/25 06:07:02;;;;;;;;;;;;;;;20.64;27.15;96028.66;5047256;28;19921;-91
2023/02/25 06:09:28;;;;;;;;;;;;;;;20.30;27.39;96025.28;5052318;28;20441;-91
2023/02/25 06:11:54;;;;;;;;;;;;;;;21.45;26.05;96016.06;5043190;28;19946;-91
2023/02/25 06:14:20;;;;;;;;;;;;;;;20.95;26.78;96027.78;5049522;28;20386;-91
2023/02/25 06:16:46;;;;;;;;;;;;;;;21.02;26.44;96031.06;5051248;28;19999;-91
2023/02/25 06:19:12;;;;;;;;;;;;;;;20.77;26.94;96028.50;5051090;28;19924;-91
2023/02/25 06:21:38;;;;;;;;;;;;;;;19.84;28.07;96025.00;5039723;28;20371;-92
2023/02/25 06:24:04;;;;;;;;;;;;;;;20.87;26.73;96029.31;5045976;28;19917;-92
2023/02/25 06:26:30;;;;;;;;;;;;;;;21.38;26.30;96018.41;5046338;28;19917;-95
2023/02/25 06:28:56;;;;;;;;;;;;;;;21.82;25.71;96037.13;5049034;28;19932;-92
2023/02/25 06:31:23;;;;;;;;;;;;;;;22.30;24.74;96038.13;5036512;28;19994;-93
2023/02/25 06:33:49;;;;;;;;;;;;;;;22.08;25.23;96034.78;5040805;28;19928;-92
2023/02/25 06:36:16;;;;;;;;;;;;;;;23.02;24.06;96039.84;5044076;28;19927;-93
2023/02/25 06:38:44;;;;;;;;;;;;;;;23.69;23.51;96039.19;5047697;28;19970;-94
2023/02/25 06:41:19;;;;;;;;;;;;;;;24.02;22.56;96047.47;5042930;28;19967;-93
2023/02/25 06:43:45;;;;;;;;;;;;;;;24.22;22.45;96039.19;5035866;28;19917;-93
2023/02/25 06:46:13;;;;;;;;;;;;;;;24.13;22.33;96050.50;5039190;28;20298;-93
2023/02/25 06:48:39;;;;;;;;;;;;;;;23.29;23.21;96041.69;5044527;28;19921;-91
2023/02/25 06:51:09;;;;;;;;;;;;;;;23.49;23.48;96047.47;5038912;28;20023;-93
2023/02/25 06:53:35;;;;;;;;;;;;;;;23.90;23.17;96042.91;5045392;28;20382;-95
2023/02/25 06:56:02;;;;;;;;;;;;;;;24.22;22.85;96044.03;5040924;28;19979;-93
2023/02/25 06:58:28;;;;;;;;;;;;;;;24.71;22.33;96019.56;5041353;28;19921;-90
2023/02/25 07:00:54;;;;;;;;;;;;;;;25.01;22.40;96023.09;5047948;28;19920;-95
2023/02/25 07:03:20;;;;;;;;;;;;;;;25.25;22.56;96023.66;5034690;28;19945;-96
2023/02/25 07:05:46;;;;;;;;;;;;;;;25.37;22.42;96019.72;5050126;28;19921;-95
2023/02/25 07:08:12;;;;;;;;;;;;;;;25.59;21.76;96022.06;5043320;28;20417;-95
2023/02/25 07:10:39;;;;;;;;;;;;;;;25.71;22.09;96018.13;5046361;28;19929;-96
2023/02/25 07:13:06;;;;;;;;;;;;;;;25.77;21.39;96012.53;5038261;28;19928;-95
2023/02/25 07:15:32;;;;;;;;;;;;;;;25.65;20.92;96006.03;5041562;28;19921;-93
2023/02/25 07:17:58;;;;;;;;;;;;;;;24.82;21.53;96010.56;5042026;28;20374;-96
2023/02/25 07:20:24;;;;;;;;;;;;;;;24.55;22.23;96005.31;5046698;28;19931;-95
2023/02/25 07:22:50;;;;;;;;;;;;;;;24.29;22.53;96001.56;5041181;28;20012;-95
2023/02/25 07:25:17;;;;;;;;;;;;;;;24.38;22.98;96009.88;5042688;28;19921;-95
2023/02/25 07:27:43;;;;;;;;;;;;;;;24.51;22.36;96001.91;5049503;28;20333;-95
2023/02/25 07:30:12;;;;;;;;;;;;;;;23.76;23.29;96002.41;5048974;28;19935;-95
2023/02/25 07:32:39;;;;;;;;;;;;;;;23.67;23.65;96001.72;5037442;28;19921;-95
2023/02/25 07:35:05;;;;;;;;;;;;;;;24.46;23.75;96003.34;5043971;28;19917;-94
2023/02/25 07:37:31;;;;;;;;;;;;;;;23.67;23.66;96010.13;5044152;28;19920;-94
2023/02/25 07:39:58;;;;;;;;;;;;;;;24.35;23.38;96006.00;5047128;28;20279;-95
2023/02/25 07:42:28;;;;;;;;;;;;;;;24.81;22.78;96008.25;5052268;28;19925;-95
2023/02/25 07:44:54;;;;;;;;;;;;;;;25.26;22.81;96008.34;5038148;28;19977;-95
2023/02/25 07:47:20;;;;;;;;;;;;;;;25.10;22.55;96005.34;5042176;28;19924;-95
2023/02/25 07:49:46;;;;;;;;;;;;;;;24.83;22.60;96003.72;5041298;28;19929;-93
2023/02/25 07:52:12;;;;;;;;;;;;;;;24.24;23.85;96005.03;5039526;28;19930;-94
2023/02/25 07:54:38;;;;;;;;;;;;;;;24.31;23.84;95997.03;5042591;28;20004;-94
2023/02/25 07:57:04;;;;;;;;;;;;;;;22.80;25.79;95997.38;5047534;28;20087;-93
2023/02/25 07:59:32;;;;;;;;;;;;;;;21.93;27.15;96008.75;5039528;28;20433;-94
2023/02/25 08:01:59;;;;;;;;;;;;;;;21.99;26.15;95998.47;5042497;28;19921;-94
2023/02/25 08:04:25;;;;;;;;;;;;;;;21.22;27.51;95994.34;5056786;28;19931;-95
2023/02/25 08:06:51;;;;;;;;;;;;;;;22.30;25.92;95990.63;5054184;28;20385;-93
2023/02/25 08:09:17;;;;;;;;;;;;;;;22.12;25.80;96001.09;5055365;28;19975;-93
2023/02/25 08:11:43;;;;;;;;;;;;;;;21.91;26.14;95989.63;5050605;28;19917;-94
2023/02/25 08:14:10;;;;;;;;;;;;;;;22.00;26.30;95983.28;5044770;28;19943;-93
2023/02/25 08:16:36;;;;;;;;;;;;;;;20.58;27.87;95993.47;5048294;28;19921;-94
2023/02/25 08:19:04;;;;;;;;;;;;;;;22.39;25.68;95984.97;5048964;28;19936;-94
2023/02/25 08:21:31;;;;;;;;;;;;;;;22.00;26.15;95995.22;5045971;28;19983;-94
2023/02/25 08:23:57;;;;;;;;;;;;;;;21.98;26.00;95985.75;5046865;28;20370;-93
2023/02/25 08:26:25;;;;;;;;;;;;;;;22.79;26.35;95981.06;5050216;28;20394;-96
2023/02/25 08:28:52;;;;;;;;;;;;;;;22.64;27.16;95987.34;5056015;28;19921;-96
2023/02/25 08:31:18;;;;;;;;;;;;;;;22.49;26.07;95980.13;5042751;28;20404;-95
2023/02/25 08:33:48;;;;;;;;;;;;;;;22.98;25.14;95976.91;5065833;28;19921;-96
2023/02/25 08:36:19;;;;;;;;;;;;;;;22.74;26.45;95978.91;5064692;28;19921;-96
2023/02/25 08:38:45;;;;;;;;;;;;;;;23.85;25.39;95979.13;5051390;28;19928;-96
2023/02/25 08:41:11;;;;;;;;;;;;;;;22.55;26.86;95987.38;5053013;28;19921;-96
2023/02/25 08:43:37;;;;;;;;;;;;;;;21.43;26.87;95987.06;5037618;28;20019;-96
2023/02/25 08:46:05;;;;;;;;;;;;;;;21.63;27.33;95988.16;5047507;28;19920;-96
2023/02/25 08:48:31;;;;;;;;;;;;;;;20.84;28.04;95985.63;5041665;28;19929;-96
2023/02/25 08:51:01;;;;;;;;;;;;;;;20.43;30.03;95990.50;5048255;28;20012;-96
2023/02/25 08:53:27;;;;;;;;;;;;;;;20.76;29.46;96006.69;5055061;28;20335;-94
2023/02/25 08:55:54;;;;;;;;;;;;;;;20.42;27.11;95991.72;5046373;28;19996;-93
2023/02/25 08:58:20;;;;;;;;;;;;;;;20.47;26.33;95998.69;5048959;28;19925;-91
2023/02/25 09:00:48;;;;;;;;;;;;;;;20.13;27.75;95994.06;5059858;28;20408;-91
2023/02/25 09:03:14;;;;;;;;;;;;;;;19.07;29.25;96005.53;5049844;28;19928;-93
2023/02/25 09:05:40;;;;;;;;;;;;;;;19.71;29.75;95998.47;5040356;28;19921;-93
2023/02/25 09:08:06;;;;;;;;;;;;;;;18.96;27.87;96002.34;5045945;28;19986;-94
2023/02/25 09:10:34;;;;;;;;;;;;;;;19.06;30.25;96004.00;5043222;28;19994;-90
2023/02/25 09:13:00;;;;;;;;;;;;;;;18.24;28.98;95994.00;5046831;28;20012;-94
2023/02/25 09:15:26;;;;;;;;;;;;;;;18.08;29.30;95991.34;5050368;28;19933;-91
2023/02/25 09:17:52;;;;;;;;;;;;;;;17.24;31.41;96004.50;5042546;28;19921;-90
2023/02/25 09:20:19;;;;;;;;;;;;;;;18.00;29.96;96018.53;5049678;28;19987;-90
2023/02/25 09:22:45;;;;;;;;;;;;;;;17.89;28.27;95995.88;5044264;28;19917;-92
2023/02/25 09:25:12;;;;;;;;;;;;;;;18.56;28.05;96004.88;5044084;28;19917;-90
2023/02/25 09:27:38;;;;;;;;;;;;;;;18.80;28.61;96019.19;5049396;28;20003;-89
2023/02/25 09:30:05;;;;;;;;;;;;;;;18.57;27.62;96023.91;5044462;28;19913;-90
2023/02/25 09:32:31;;;;;;;;;;;;;;;18.66;28.53;96009.31;5047326;28;19948;-92
2023/02/25 09:34:57;;;;;;;;;;;;;;;19.55;29.59;96007.81;5050265;28;19928;-92
2023/02/25 09:37:24;;;;;;;;;;;;;;;19.11;27.84;96006.97;5052221;28;19919;-93
2023/02/25 09:39:50;;;;;;;;;;;;;;;18.30;28.94;96011.66;5045208;28;19928;-90
2023/02/25 09:42:23;;;;;;;;;;;;;;;18.30;31.15;96014.44;5039141;28;20290;-91
2023/02/25 09:44:56;;;;;;;;;;;;;;;19.46;28.81;96030.03;5042537;28;20294;-92
2023/02/25 09:47:33;;;;;;;;;;;;;;;18.53;28.73;96000.22;5047814;28;19974;-93
2023/02/25 09:50:05;;;;;;;;;;;;;;;18.23;28.55;96020.22;5043492;28;19925;-92
2023/02/25 09:52:37;;;;;;;;;;;;;;;19.44;27.51;96015.75;5048581;28;19920;-93
2023/02/25 09:55:10;;;;;;;;;;;;;;;17.61;31.30;96027.25;5041620;28;19936;-91
2023/02/25 09:57:40;;;;;;;;;;;;;;;18.73;29.73;96022.22;5043134;28;19932;-93
2023/02/25 10:00:15;;;;;;;;;;;;;;;17.72;27.81;96041.59;5050452;28;20286;-92
2023/02/25 10:02:57;;;;;;;;;;;;;;;17.53;31.00;96032.22;5051790;28;19924;-92
2023/02/25 10:05:38;;;;;;;;;;;;;;;18.95;27.84;96015.47;5043207;28;19921;-92
2023/02/25 10:08:10;;;;;;;;;;;;;;;19.05;27.36;96028.25;5040770;28;19929;-89
2023/02/25 10:10:45;;;;;;;;;;;;;;;19.48;30.06;96008.06;5047124;28;20023;-92
2023/02/25 10:13:17;;;;;;;;;;;;;;;21.32;25.53;96013.44;5042711;28;20297;-93
2023/02/25 10:15:55;;;;;;;;;;;;;;;20.25;27.11;96020.31;5051406;28;20354;-91
2023/02/25 10:18:49;;;;;;;;;;;;;;;19.40;27.47;96019.91;5049583;28;19928;-89
2023/02/25 10:21:38;;;;;;;;;;;;;;;19.65;27.63;96012.19;5035656;28;19971;-89
2023/02/25 10:24:30;;;;;;;;;;;;;;;19.86;29.00;96008.63;5051902;28;19925;-91
2023/02/25 10:27:02;;;;;;;;;;;;;;;20.64;27.00;96014.72;5049219;28;20298;-89
2023/02/25 10:29:33;;;;;;;;;;;;;;;19.90;25.92;96008.50;5036836;28;19983;-90
2023/02/25 10:32:10;;;;;;;;;;;;;;;21.21;25.78;96010.31;5048426;28;19920;-90
2023/02/25 10:34:38;;;;;;;;;;;;;;;20.41;24.34;96012.47;5047536;28;20019;-91
2023/02/25 10:37:04;;;;;;;;;;;;;;;19.47;27.38;96003.72;5050179;28;19925;-91
2023/02/25 10:39:31;;;;;;;;;;;;;;;20.42;25.05;96018.84;5051993;28;19921;-91
2023/02/25 10:41:57;;;;;;;;;;;;;;;20.68;25.67;96009.75;5054152;28;19921;-89
2023/02/25 10:44:23;;;;;;;;;;;;;;;18.54;26.54;95991.44;5051819;28;19912;-88
2023/02/25 10:46:54;;;;;;;;;;;;;;;19.15;26.29;95996.50;5050222;28;19925;-88
2023/02/25 10:49:24;;;;;;;;;;;;;;;19.05;29.73;95982.97;5045521;28;20371;-88
2023/02/25 10:52:14;;;;;;;;;;;;;;;20.33;25.44;95991.69;5039875;28;19922;-89
2023/02/25 10:54:47;;;;;;;;;;;;;;;20.99;25.54;95989.34;5043769;28;20008;-92
2023/02/25 10:57:24;;;;;;;;;;;;;;;21.43;23.67;95995.44;5051275;28;19929;-87
2023/02/25 11:00:20;;;;;;;;;;;;;;;21.63;25.98;95990.94;5050470;28;19920;-90
2023/02/25 11:02:48;;;;;;;;;;;;;;;20.26;25.35;95989.19;5037405;28;19925;-90
2023/02/25 11:05:35;;;;;;;;;;;;;;;21.72;25.33;95974.16;5043115;28;19928;-90
2023/02/25 11:08:03;;;;;;;;;;;;;;;20.25;25.95;95995.22;5050572;28;20356;-88
2023/02/25 11:10:29;;;;;;;;;;;;;;;20.37;27.68;95997.91;5038988;28;19928;-89
2023/02/25 11:12:56;;;;;;;;;;;;;;;18.10;28.23;95970.25;5038215;28;20108;-89
2023/02/25 11:15:33;;;;;;;;;;;;;;;17.50;30.83;96008.13;5038482;28;20355;-89
2023/02/25 11:18:05;;;;;;;;;;;;;;;17.84;29.96;96008.31;5034158;28;20409;-88
2023/02/25 11:20:32;;;;;;;;;;;;;;;18.92;28.88;96004.47;5039203;28;20008;-92
2023/02/25 11:22:58;;;;;;;;;;;;;;;20.13;26.08;96015.56;5034914;28;19948;-89
2023/02/25 11:25:37;;;;;;;;;;;;;;;20.59;27.13;96014.53;5049609;28;20019;-90
2023/02/25 11:28:06;;;;;;;;;;;;;;;20.98;25.63;96016.47;5040216;28;19933;-89
2023/02/25 11:30:36;;;;;;;;;;;;;;;18.96;26.43;95997.56;5037476;28;19921;-87
2023/02/25 11:33:04;;;;;;;;;;;;;;;19.81;27.66;96009.19;5033198;28;19917;-87
2023/02/25 11:35:34;;;;;;;;;;;;;;;21.78;24.41;96011.38;5044606;28;19920;-88
2023/02/25 11:38:20;;;;;;;;;;;;;;;21.29;23.87;96024.75;5047459;28;19920;-89
2023/02/25 11:40:46;;;;;;;;;;;;;;;18.91;26.90;96016.81;5039945;28;20345;-88
2023/02/25 11:43:15;;;;;;;;;;;;;;;18.22;27.82;96027.00;5048120;28;20044;-86
2023/02/25 11:46:01;;;;;;;;;;;;;;;18.17;28.27;96022.78;5047735;28;19924;-90
2023/02/25 11:48:29;;;;;;;;;;;;;;;17.59;29.29;96032.47;5046554;28;19925;-88
2023/02/25 11:51:04;;;;;;;;;;;;;;;19.15;26.31;96026.31;5040620;28;19928;-88
2023/02/25 11:53:30;;;;;;;;;;;;;;;19.96;25.91;96029.72;5044487;28;19921;-87
2023/02/25 11:56:00;;;;;;;;;;;;;;;19.37;26.87;96018.78;5044547;28;20015;-90
2023/02/25 11:58:47;;;;;;;;;;;;;;;18.94;28.24;96036.19;5041707;28;19971;-88
2023/02/25 12:01:23;;;;;;;;;;;;;;;19.07;27.87;96039.69;5044607;28;20359;-88
2023/02/25 12:03:55;;;;;;;;;;;;;;;19.38;25.53;96047.41;5039714;28;20549;-88
2023/02/25 12:06:21;;;;;;;;;;;;;;;19.10;26.95;96049.13;5037526;28;19932;-88
2023/02/25 12:08:54;;;;;;;;;;;;;;;18.70;28.92;96039.78;5044755;28;19921;-87
2023/02/25 12:11:39;;;;;;;;;;;;;;;18.38;27.57;96061.00;5035312;28;20337;-88
2023/02/25 12:14:18;;;;;;;;;;;;;;;19.00;28.52;96055.84;5044832;28;19925;-89
2023/02/25 12:16:55;;;;;;;;;;;;;;;18.16;29.21;96056.53;5046282;28;20007;-90
2023/02/25 12:19:21;;;;;;;;;;;;;;;17.53;30.14;96059.97;5044746;28;19920;-89
2023/02/25 12:22:02;;;;;;;;;;;;;;;17.28;31.49;96073.72;5035851;28;19921;-88
2023/02/25 12:24:47;;;;;;;;;;;;;;;18.17;29.85;96058.09;5039731;28;19928;-91
2023/02/25 12:27:49;;;;;;;;;;;;;;;17.41;30.67;96065.47;5042527;28;20393;-89
2023/02/25 12:30:21;;;;;;;;;;;;;;;18.88;28.51;96065.75;5037124;28;20616;-88
2023/02/25 12:32:47;;;;;;;;;;;;;;;16.87;30.82;96066.09;5049502;28;19925;-88
2023/02/25 12:35:14;;;;;;;;;;;;;;;17.82;31.62;96068.28;5053513;28;19987;-88
2023/02/25 12:37:55;;;;;;;;;;;;;;;18.05;29.16;96050.53;5044439;28;19952;-88
2023/02/25 12:40:24;;;;;;;;;;;;;;;19.56;26.83;96045.53;5047996;28;19921;-92
2023/02/25 12:42:56;;;;;;;;;;;;;;;17.68;30.02;96035.38;5039898;28;20032;-89
2023/02/25 12:45:31;;;;;;;;;;;;;;;19.43;26.05;96053.19;5043255;28;20385;-90
2023/02/25 12:47:57;;;;;;;;;;;;;;;19.51;25.55;96050.94;5046854;28;19929;-89
2023/02/25 12:50:23;;;;;;;;;;;;;;;17.20;31.32;96095.31;5044300;28;19925;-89
2023/02/25 12:52:55;;;;;;;;;;;;;;;17.97;31.06;96063.84;5039701;28;19921;-90
2023/02/25 12:55:39;;;;;;;;;;;;;;;18.67;29.99;96071.25;5043441;28;19921;-89
2023/02/25 12:58:18;;;;;;;;;;;;;;;17.52;32.75;96069.53;5040611;28;19917;-89